sensor_id;sensor_type;location;lat;lon;timestamp;temperature;humidity
80234;DHT22;69712;42.142;24.766;2023-09-07T00:00:49;23.20;60.90
80234;DHT22;69712;42.142;24.766;2023-09-07T00:03:15;22.90;61.30
80234;DHT22;69712;42.142;24.766;2023-09-07T00:05:41;23.00;61.60
80234;DHT22;69712;42.142;24.766;2023-09-07T00:08:07;23.20;61.00
80234;DHT22;69712;42.142;24.766;2023-09-07T00:10:33;23.20;60.20
80234;DHT22;69712;42.142;24.766;2023-09-07T00:13:01;23.20;60.60
80234;DHT22;69712;42.142;24.766;2023-09-07T00:15:28;23.10;59.60
80234;DHT22;69712;42.142;24.766;2023-09-07T00:17:55;23.20;59.70
80234;DHT22;69712;42.142;24.766;2023-09-07T00:20:22;23.10;60.30
80234;DHT22;69712;42.142;24.766;2023-09-07T00:22:49;23.20;59.60
80234;DHT22;69712;42.142;24.766;2023-09-07T00:25:14;23.20;60.00
80234;DHT22;69712;42.142;24.766;2023-09-07T00:27:40;23.20;59.90
80234;DHT22;69712;42.142;24.766;2023-09-07T00:30:06;23.20;59.00
80234;DHT22;69712;42.142;24.766;2023-09-07T00:32:36;23.00;57.70
80234;DHT22;69712;42.142;24.766;2023-09-07T00:35:03;22.60;58.00
80234;DHT22;69712;42.142;24.766;2023-09-07T00:37:29;22.50;58.70
80234;DHT22;69712;42.142;24.766;2023-09-07T00:39:54;22.50;58.70
80234;DHT22;69712;42.142;24.766;2023-09-07T00:42:20;22.60;58.00
80234;DHT22;69712;42.142;24.766;2023-09-07T00:44:46;22.80;57.90
80234;DHT22;69712;42.142;24.766;2023-09-07T00:47:14;22.90;57.70
80234;DHT22;69712;42.142;24.766;2023-09-07T00:49:40;23.00;57.40
80234;DHT22;69712;42.142;24.766;2023-09-07T00:52:08;23.00;56.80
80234;DHT22;69712;42.142;24.766;2023-09-07T00:54:34;22.90;56.60
80234;DHT22;69712;42.142;24.766;2023-09-07T00:57:01;22.90;57.60
80234;DHT22;69712;42.142;24.766;2023-09-07T00:59:27;22.90;57.20
80234;DHT22;69712;42.142;24.766;2023-09-07T01:01:53;22.90;57.00
80234;DHT22;69712;42.142;24.766;2023-09-07T01:04:19;23.00;57.80
80234;DHT22;69712;42.142;24.766;2023-09-07T01:06:51;23.00;56.40
80234;DHT22;69712;42.142;24.766;2023-09-07T01:09:23;23.00;56.20
80234;DHT22;69712;42.142;24.766;2023-09-07T01:11:49;22.90;57.00
80234;DHT22;69712;42.142;24.766;2023-09-07T01:14:15;23.00;56.10
80234;DHT22;69712;42.142;24.766;2023-09-07T01:16:41;23.00;56.10
80234;DHT22;69712;42.142;24.766;2023-09-07T01:19:07;23.10;55.60
80234;DHT22;69712;42.142;24.766;2023-09-07T01:21:37;23.10;54.70
80234;DHT22;69712;42.142;24.766;2023-09-07T01:24:06;22.90;54.90
80234;DHT22;69712;42.142;24.766;2023-09-07T01:26:34;22.50;56.10
80234;DHT22;69712;42.142;24.766;2023-09-07T01:29:01;22.30;56.60
80234;DHT22;69712;42.142;24.766;2023-09-07T01:31:27;22.30;57.40
80234;DHT22;69712;42.142;24.766;2023-09-07T01:33:52;22.40;56.40
80234;DHT22;69712;42.142;24.766;2023-09-07T01:36:18;22.50;56.10
80234;DHT22;69712;42.142;24.766;2023-09-07T01:38:44;22.50;56.50
80234;DHT22;69712;42.142;24.766;2023-09-07T01:41:09;22.50;55.70
80234;DHT22;69712;42.142;24.766;2023-09-07T01:43:37;22.70;55.60
80234;DHT22;69712;42.142;24.766;2023-09-07T01:46:03;22.60;55.80
80234;DHT22;69712;42.142;24.766;2023-09-07T01:48:28;22.70;56.20
80234;DHT22;69712;42.142;24.766;2023-09-07T01:50:54;22.90;55.70
80234;DHT22;69712;42.142;24.766;2023-09-07T01:53:20;22.90;55.40
80234;DHT22;69712;42.142;24.766;2023-09-07T01:55:46;23.00;55.30
80234;DHT22;69712;42.142;24.766;2023-09-07T01:58:13;22.90;55.90
80234;DHT22;69712;42.142;24.766;2023-09-07T02:00:39;23.00;57.30
80234;DHT22;69712;42.142;24.766;2023-09-07T02:03:05;22.90;58.30
80234;DHT22;69712;42.142;24.766;2023-09-07T02:05:31;22.90;57.60
80234;DHT22;69712;42.142;24.766;2023-09-07T02:08:00;23.00;58.20
80234;DHT22;69712;42.142;24.766;2023-09-07T02:10:26;23.00;57.90
80234;DHT22;69712;42.142;24.766;2023-09-07T02:12:51;23.10;57.90
80234;DHT22;69712;42.142;24.766;2023-09-07T02:15:17;23.00;58.50
80234;DHT22;69712;42.142;24.766;2023-09-07T02:17:43;22.90;58.80
80234;DHT22;69712;42.142;24.766;2023-09-07T02:20:11;23.00;59.10
80234;DHT22;69712;42.142;24.766;2023-09-07T02:22:38;22.90;59.70
80234;DHT22;69712;42.142;24.766;2023-09-07T02:25:04;22.70;60.20
80234;DHT22;69712;42.142;24.766;2023-09-07T02:27:35;22.70;60.40
80234;DHT22;69712;42.142;24.766;2023-09-07T02:30:01;22.60;60.70
80234;DHT22;69712;42.142;24.766;2023-09-07T02:32:27;22.40;61.40
80234;DHT22;69712;42.142;24.766;2023-09-07T02:34:53;22.50;61.20
80234;DHT22;69712;42.142;24.766;2023-09-07T02:37:19;22.50;61.40
80234;DHT22;69712;42.142;24.766;2023-09-07T02:39:45;22.50;61.90
80234;DHT22;69712;42.142;24.766;2023-09-07T02:42:10;22.40;62.20
80234;DHT22;69712;42.142;24.766;2023-09-07T02:44:37;22.50;62.40
80234;DHT22;69712;42.142;24.766;2023-09-07T02:47:04;22.40;63.00
80234;DHT22;69712;42.142;24.766;2023-09-07T02:49:29;22.30;63.00
80234;DHT22;69712;42.142;24.766;2023-09-07T02:51:55;22.20;63.70
80234;DHT22;69712;42.142;24.766;2023-09-07T02:54:22;22.20;64.30
80234;DHT22;69712;42.142;24.766;2023-09-07T02:56:48;22.10;64.90
80234;DHT22;69712;42.142;24.766;2023-09-07T02:59:14;22.20;64.80
80234;DHT22;69712;42.142;24.766;2023-09-07T03:01:39;22.20;64.60
80234;DHT22;69712;42.142;24.766;2023-09-07T03:04:05;22.30;64.80
80234;DHT22;69712;42.142;24.766;2023-09-07T03:06:33;22.30;64.90
80234;DHT22;69712;42.142;24.766;2023-09-07T03:08:58;22.10;65.40
80234;DHT22;69712;42.142;24.766;2023-09-07T03:11:25;22.20;65.10
80234;DHT22;69712;42.142;24.766;2023-09-07T03:13:51;22.20;65.60
80234;DHT22;69712;42.142;24.766;2023-09-07T03:16:17;22.20;65.90
80234;DHT22;69712;42.142;24.766;2023-09-07T03:18:43;22.10;66.50
80234;DHT22;69712;42.142;24.766;2023-09-07T03:21:09;22.00;67.10
80234;DHT22;69712;42.142;24.766;2023-09-07T03:24:04;22.00;67.20
80234;DHT22;69712;42.142;24.766;2023-09-07T03:26:30;22.00;67.10
80234;DHT22;69712;42.142;24.766;2023-09-07T03:28:56;21.90;67.80
80234;DHT22;69712;42.142;24.766;2023-09-07T03:31:23;21.90;67.80
80234;DHT22;69712;42.142;24.766;2023-09-07T03:33:48;21.90;68.80
80234;DHT22;69712;42.142;24.766;2023-09-07T03:36:15;22.00;67.70
80234;DHT22;69712;42.142;24.766;2023-09-07T03:38:41;21.80;68.00
80234;DHT22;69712;42.142;24.766;2023-09-07T03:41:07;21.70;68.60
80234;DHT22;69712;42.142;24.766;2023-09-07T03:43:33;21.80;68.50
80234;DHT22;69712;42.142;24.766;2023-09-07T03:45:58;21.80;68.70
80234;DHT22;69712;42.142;24.766;2023-09-07T03:48:24;21.80;68.50
80234;DHT22;69712;42.142;24.766;2023-09-07T03:50:50;21.70;68.80
80234;DHT22;69712;42.142;24.766;2023-09-07T03:53:15;21.70;69.10
80234;DHT22;69712;42.142;24.766;2023-09-07T03:55:42;21.60;69.50
80234;DHT22;69712;42.142;24.766;2023-09-07T03:58:09;21.60;69.30
80234;DHT22;69712;42.142;24.766;2023-09-07T04:00:38;21.80;68.80
80234;DHT22;69712;42.142;24.766;2023-09-07T04:03:05;21.60;69.50
80234;DHT22;69712;42.142;24.766;2023-09-07T04:05:31;21.70;69.10
80234;DHT22;69712;42.142;24.766;2023-09-07T04:07:56;21.70;68.60
80234;DHT22;69712;42.142;24.766;2023-09-07T04:10:22;21.60;68.90
80234;DHT22;69712;42.142;24.766;2023-09-07T04:12:48;21.70;68.80
80234;DHT22;69712;42.142;24.766;2023-09-07T04:15:14;21.80;68.60
80234;DHT22;69712;42.142;24.766;2023-09-07T04:17:40;21.70;68.60
80234;DHT22;69712;42.142;24.766;2023-09-07T04:20:07;21.60;68.80
80234;DHT22;69712;42.142;24.766;2023-09-07T04:22:34;21.70;68.70
80234;DHT22;69712;42.142;24.766;2023-09-07T04:25:01;21.60;69.00
80234;DHT22;69712;42.142;24.766;2023-09-07T04:27:26;21.50;69.00
80234;DHT22;69712;42.142;24.766;2023-09-07T04:29:52;21.60;69.00
80234;DHT22;69712;42.142;24.766;2023-09-07T04:32:19;21.50;69.00
80234;DHT22;69712;42.142;24.766;2023-09-07T04:34:44;21.60;69.00
80234;DHT22;69712;42.142;24.766;2023-09-07T04:37:11;21.60;69.00
80234;DHT22;69712;42.142;24.766;2023-09-07T04:39:37;21.70;68.60
80234;DHT22;69712;42.142;24.766;2023-09-07T04:42:03;21.90;68.50
80234;DHT22;69712;42.142;24.766;2023-09-07T04:44:28;21.80;68.60
80234;DHT22;69712;42.142;24.766;2023-09-07T04:46:55;21.80;68.50
80234;DHT22;69712;42.142;24.766;2023-09-07T04:49:22;21.90;68.10
80234;DHT22;69712;42.142;24.766;2023-09-07T04:51:48;21.80;67.80
80234;DHT22;69712;42.142;24.766;2023-09-07T04:54:14;21.70;67.80
80234;DHT22;69712;42.142;24.766;2023-09-07T04:56:41;21.90;67.60
80234;DHT22;69712;42.142;24.766;2023-09-07T05:02:30;22.10;66.80
80234;DHT22;69712;42.142;24.766;2023-09-07T05:05:12;22.20;66.50
80234;DHT22;69712;42.142;24.766;2023-09-07T05:07:38;22.20;66.10
80234;DHT22;69712;42.142;24.766;2023-09-07T05:10:04;22.10;66.50
80234;DHT22;69712;42.142;24.766;2023-09-07T05:12:32;22.10;66.10
80234;DHT22;69712;42.142;24.766;2023-09-07T05:14:57;22.30;66.20
80234;DHT22;69712;42.142;24.766;2023-09-07T05:17:23;22.30;65.40
80234;DHT22;69712;42.142;24.766;2023-09-07T05:19:49;22.50;64.80
80234;DHT22;69712;42.142;24.766;2023-09-07T05:22:24;22.50;64.60
80234;DHT22;69712;42.142;24.766;2023-09-07T05:25:15;22.60;64.30
80234;DHT22;69712;42.142;24.766;2023-09-07T05:27:41;22.70;64.40
80234;DHT22;69712;42.142;24.766;2023-09-07T05:30:07;22.70;64.10
80234;DHT22;69712;42.142;24.766;2023-09-07T05:32:33;22.80;64.50
80234;DHT22;69712;42.142;24.766;2023-09-07T05:34:59;23.00;63.60
80234;DHT22;69712;42.142;24.766;2023-09-07T05:37:24;23.00;63.30
80234;DHT22;69712;42.142;24.766;2023-09-07T05:39:50;23.10;63.40
80234;DHT22;69712;42.142;24.766;2023-09-07T05:42:16;23.20;63.00
80234;DHT22;69712;42.142;24.766;2023-09-07T05:44:42;23.30;62.00
80234;DHT22;69712;42.142;24.766;2023-09-07T05:47:08;23.40;62.10
80234;DHT22;69712;42.142;24.766;2023-09-07T05:49:33;23.50;62.00
80234;DHT22;69712;42.142;24.766;2023-09-07T05:51:59;23.70;61.30
80234;DHT22;69712;42.142;24.766;2023-09-07T05:54:25;23.80;61.10
80234;DHT22;69712;42.142;24.766;2023-09-07T05:56:50;23.90;60.70
80234;DHT22;69712;42.142;24.766;2023-09-07T05:59:16;24.10;60.30
80234;DHT22;69712;42.142;24.766;2023-09-07T06:01:42;24.20;60.40
80234;DHT22;69712;42.142;24.766;2023-09-07T06:04:08;24.10;59.80
80234;DHT22;69712;42.142;24.766;2023-09-07T06:06:33;24.20;59.60
80234;DHT22;69712;42.142;24.766;2023-09-07T06:08:59;24.30;59.70
80234;DHT22;69712;42.142;24.766;2023-09-07T06:11:25;24.30;59.60
80234;DHT22;69712;42.142;24.766;2023-09-07T06:13:51;24.40;59.00
80234;DHT22;69712;42.142;24.766;2023-09-07T06:16:17;24.50;58.10
80234;DHT22;69712;42.142;24.766;2023-09-07T06:18:43;24.70;57.90
80234;DHT22;69712;42.142;24.766;2023-09-07T06:21:09;24.80;57.60
80234;DHT22;69712;42.142;24.766;2023-09-07T06:23:35;25.10;56.80
80234;DHT22;69712;42.142;24.766;2023-09-07T06:26:01;25.10;56.40
80234;DHT22;69712;42.142;24.766;2023-09-07T06:28:27;25.20;56.20
80234;DHT22;69712;42.142;24.766;2023-09-07T06:30:52;25.50;55.20
80234;DHT22;69712;42.142;24.766;2023-09-07T06:33:18;25.80;54.30
80234;DHT22;69712;42.142;24.766;2023-09-07T06:35:44;26.00;53.60
80234;DHT22;69712;42.142;24.766;2023-09-07T06:38:10;26.10;52.90
80234;DHT22;69712;42.142;24.766;2023-09-07T06:40:35;26.20;53.10
80234;DHT22;69712;42.142;24.766;2023-09-07T06:43:01;26.40;53.10
80234;DHT22;69712;42.142;24.766;2023-09-07T06:45:37;26.70;52.60
80234;DHT22;69712;42.142;24.766;2023-09-07T06:48:03;27.10;52.00
80234;DHT22;69712;42.142;24.766;2023-09-07T06:50:29;27.40;50.70
80234;DHT22;69712;42.142;24.766;2023-09-07T06:52:54;27.60;49.80
80234;DHT22;69712;42.142;24.766;2023-09-07T06:55:20;28.20;49.00
80234;DHT22;69712;42.142;24.766;2023-09-07T06:57:46;28.80;47.60
80234;DHT22;69712;42.142;24.766;2023-09-07T07:00:12;29.70;45.50
80234;DHT22;69712;42.142;24.766;2023-09-07T07:02:38;30.60;43.90
80234;DHT22;69712;42.142;24.766;2023-09-07T07:05:04;31.90;40.70
80234;DHT22;69712;42.142;24.766;2023-09-07T07:07:30;32.70;39.20
80234;DHT22;69712;42.142;24.766;2023-09-07T07:09:56;33.10;37.80
80234;DHT22;69712;42.142;24.766;2023-09-07T07:12:22;34.00;36.80
80234;DHT22;69712;42.142;24.766;2023-09-07T07:14:48;33.80;35.80
80234;DHT22;69712;42.142;24.766;2023-09-07T07:17:14;33.40;36.40
80234;DHT22;69712;42.142;24.766;2023-09-07T07:19:39;33.10;37.00
80234;DHT22;69712;42.142;24.766;2023-09-07T07:22:07;32.60;37.60
80234;DHT22;69712;42.142;24.766;2023-09-07T07:24:32;32.20;38.20
80234;DHT22;69712;42.142;24.766;2023-09-07T07:26:58;31.80;38.00
